createdAt,value
2018-06-21T00:02:27.530Z,25.00
2018-06-21T00:05:03.345Z,25.00
2018-06-21T00:07:32.560Z,25.00
2018-06-21T00:10:01.729Z,24.90
2018-06-21T00:12:30.907Z,24.90
2018-06-21T00:15:00.093Z,24.80
2018-06-21T00:17:29.261Z,24.80
2018-06-21T00:19:58.467Z,24.70
2018-06-21T00:22:27.661Z,24.70
2018-06-21T00:24:56.828Z,24.70
2018-06-21T00:30:26.302Z,24.60
2018-06-21T00:35:56.079Z,24.50
2018-06-21T00:38:25.252Z,24.40
2018-06-21T00:40:54.401Z,24.40
2018-06-21T00:43:23.615Z,24.40
2018-06-21T00:45:52.791Z,24.30
2018-06-21T00:48:21.962Z,24.30
2018-06-21T00:50:51.234Z,24.30
2018-06-21T00:53:20.401Z,24.20
2018-06-21T00:58:49.969Z,24.20
2018-06-21T01:04:19.645Z,24.10
2018-06-21T01:06:48.808Z,24.10
2018-06-21T01:09:17.970Z,24.00
2018-06-21T01:11:47.181Z,24.00
2018-06-21T01:14:16.350Z,24.00
2018-06-21T01:17:04.517Z,23.90
2018-06-21T01:19:33.680Z,23.90
2018-06-21T01:22:02.848Z,23.80
2018-06-21T01:27:32.045Z,23.80
2018-06-21T01:33:01.754Z,23.70
2018-06-21T01:35:30.912Z,23.70
2018-06-21T01:41:00.857Z,23.60
2018-06-21T01:43:30.081Z,23.60
2018-06-21T01:45:59.261Z,23.50
2018-06-21T01:48:28.419Z,23.50
2018-06-21T01:50:58.149Z,23.50
2018-06-21T01:53:28.025Z,23.50
2018-06-21T01:55:57.177Z,23.40
2018-06-21T02:01:26.442Z,23.40
2018-06-21T02:03:55.970Z,23.30
2018-06-21T02:06:25.148Z,23.30
2018-06-21T02:11:23.367Z,23.20
2018-06-21T02:13:52.542Z,23.20
2018-06-21T02:16:21.793Z,23.20
2018-06-21T02:18:50.958Z,23.10
2018-06-21T02:21:20.174Z,23.10
2018-06-21T02:23:49.374Z,23.10
2018-06-21T02:26:18.528Z,23.10
2018-06-21T02:28:47.760Z,23.00
2018-06-21T02:31:16.952Z,23.00
2018-06-21T02:36:46.834Z,23.00
2018-06-21T02:39:15.987Z,22.90
2018-06-21T02:41:45.134Z,22.90
2018-06-21T02:44:14.317Z,22.90
2018-06-21T02:46:43.470Z,22.80
2018-06-21T02:49:12.633Z,22.80
2018-06-21T02:51:42.002Z,22.80
2018-06-21T02:57:12.056Z,22.70
2018-06-21T02:59:41.218Z,22.70
2018-06-21T03:05:10.757Z,22.60
2018-06-21T03:07:39.949Z,22.60
2018-06-21T03:10:08.794Z,22.60
2018-06-21T03:12:37.985Z,22.60
2018-06-21T03:15:07.364Z,22.60
2018-06-21T03:17:36.537Z,22.50
2018-06-21T03:20:05.750Z,22.50
2018-06-21T03:22:34.906Z,22.50
2018-06-21T03:25:04.085Z,22.50
2018-06-21T03:27:33.315Z,22.50
2018-06-21T03:30:03.919Z,22.40
2018-06-21T03:32:33.111Z,22.40
2018-06-21T03:38:16.702Z,22.40
2018-06-21T03:40:45.862Z,22.40
2018-06-21T03:43:15.045Z,22.30
2018-06-21T03:45:44.246Z,22.30
2018-06-21T03:48:13.428Z,22.30
2018-06-21T03:51:01.621Z,22.30
2018-06-21T03:53:31.213Z,22.20
2018-06-21T03:56:00.378Z,22.30
2018-06-21T03:58:29.594Z,22.20
2018-06-21T04:00:58.777Z,22.20
2018-06-21T04:08:57.812Z,22.20
2018-06-21T04:11:26.957Z,22.20
2018-06-21T04:13:56.148Z,22.20
2018-06-21T04:16:25.317Z,22.20
2018-06-21T04:21:55.019Z,22.10
2018-06-21T04:24:24.170Z,22.10
2018-06-21T04:26:53.631Z,22.10
2018-06-21T04:29:22.808Z,22.10
2018-06-21T04:31:51.980Z,22.10
2018-06-21T04:34:21.139Z,22.10
2018-06-21T04:36:50.319Z,22.20
2018-06-21T04:39:19.468Z,22.10
2018-06-21T04:41:48.640Z,22.10
2018-06-21T04:44:17.800Z,22.20
2018-06-21T04:47:03.642Z,22.20
2018-06-21T04:49:32.893Z,22.20
2018-06-21T04:52:02.112Z,22.20
2018-06-21T04:57:32.009Z,22.10
2018-06-21T05:00:01.239Z,22.20
2018-06-21T05:02:30.425Z,22.20
2018-06-21T05:04:59.621Z,22.30
2018-06-21T05:07:28.800Z,22.00
2018-06-21T05:09:57.953Z,22.10
2018-06-21T05:15:27.973Z,22.20
2018-06-21T05:17:57.128Z,22.40
2018-06-21T05:20:26.319Z,22.40
2018-06-21T05:25:24.466Z,22.50
2018-06-21T05:27:53.651Z,22.50
2018-06-21T05:30:22.858Z,22.40
2018-06-21T05:32:52.022Z,22.60
2018-06-21T05:35:21.173Z,22.60
2018-06-21T05:37:50.383Z,22.50
2018-06-21T05:43:19.899Z,22.80
2018-06-21T05:45:49.061Z,22.80
2018-06-21T05:48:18.220Z,22.80
2018-06-21T05:50:47.436Z,22.90
2018-06-21T05:53:16.600Z,23.00
2018-06-21T05:56:08.695Z,23.00
2018-06-21T05:58:37.906Z,23.10
2018-06-21T06:01:07.397Z,23.20
2018-06-21T06:07:01.973Z,23.30
2018-06-21T06:09:31.199Z,23.40
2018-06-21T06:12:03.705Z,23.40
2018-06-21T06:15:02.202Z,23.50
2018-06-21T06:17:32.091Z,23.60
2018-06-21T06:32:05.424Z,24.20
2018-06-21T06:37:35.205Z,24.20
2018-06-21T06:40:04.430Z,24.20
2018-06-21T06:45:34.341Z,24.50
2018-06-21T06:48:03.501Z,24.50
2018-06-21T06:51:01.557Z,24.70
2018-06-21T06:53:30.733Z,24.90
2018-06-21T07:07:03.495Z,25.40
2018-06-21T07:27:42.789Z,26.10
2018-06-21T07:30:12.037Z,26.70
2018-06-21T07:33:02.037Z,27.00
2018-06-21T07:36:00.766Z,26.60
2018-06-21T07:47:30.093Z,27.20
2018-06-21T07:50:05.430Z,27.10
2018-06-21T07:52:34.626Z,27.00
2018-06-21T07:55:03.827Z,27.00
2018-06-21T08:00:38.798Z,27.60
2018-06-21T08:03:08.019Z,27.80
2018-06-21T08:08:37.027Z,28.10
2018-06-21T08:11:06.231Z,28.10
2018-06-21T08:14:00.860Z,28.60
2018-06-21T08:28:36.553Z,28.60
2018-06-21T08:31:05.702Z,28.80
2018-06-21T08:48:37.071Z,29.30
2018-06-21T08:59:03.349Z,29.10
2018-06-21T09:11:02.533Z,29.30
2018-06-21T09:22:32.776Z,29.40
2018-06-21T09:25:03.721Z,29.40
2018-06-21T09:30:38.749Z,29.40
2018-06-21T09:33:08.121Z,29.70
2018-06-21T09:35:37.284Z,29.70
2018-06-21T09:41:07.724Z,29.90
2018-06-21T09:50:02.531Z,30.10
2018-06-21T09:56:00.754Z,30.50
2018-06-21T10:07:42.344Z,30.60
2018-06-21T10:10:36.947Z,30.70
2018-06-21T10:13:06.145Z,30.40
2018-06-21T10:35:13.665Z,30.80
2018-06-21T10:40:42.781Z,30.90
2018-06-21T10:46:22.469Z,31.20
2018-06-21T10:52:25.441Z,31.70
2018-06-21T10:55:03.223Z,31.50
2018-06-21T11:25:02.314Z,32.20
2018-06-21T11:42:29.574Z,31.80
2018-06-21T11:45:04.277Z,32.10
2018-06-21T11:48:02.415Z,32.10
2018-06-21T12:12:04.863Z,32.00
2018-06-21T12:18:01.886Z,32.00
2018-06-21T12:20:38.977Z,32.00
2018-06-21T12:23:08.149Z,32.20
2018-06-21T12:29:03.088Z,31.70
2018-06-21T12:35:00.977Z,32.60
2018-06-21T12:40:38.598Z,32.80
2018-06-21T12:43:07.861Z,32.70
2018-06-21T12:48:38.393Z,32.40
2018-06-21T12:51:07.671Z,32.50
2018-06-21T13:00:02.585Z,32.90
2018-06-21T13:09:01.033Z,32.80
2018-06-21T13:20:39.588Z,33.10
2018-06-21T13:23:08.807Z,33.20
2018-06-21T13:29:01.886Z,33.50
2018-06-21T13:41:01.721Z,33.20
2018-06-21T13:53:01.618Z,30.00
2018-06-21T14:11:01.032Z,25.70
2018-06-21T14:16:30.854Z,28.50
2018-06-21T14:25:03.857Z,27.60
2018-06-21T14:28:02.717Z,28.30
2018-06-21T14:34:01.062Z,28.00
2018-06-21T14:36:30.563Z,27.70
2018-06-21T14:39:22.675Z,27.40
2018-06-21T14:41:51.940Z,27.60
2018-06-21T14:44:21.120Z,27.40
2018-06-21T14:47:03.016Z,27.00
2018-06-21T14:49:32.194Z,27.10
2018-06-21T14:52:01.407Z,26.80
2018-06-21T14:57:31.180Z,26.30
2018-06-21T15:00:04.526Z,26.10
2018-06-21T15:02:33.743Z,26.10
2018-06-21T15:05:02.927Z,26.00
2018-06-21T15:07:32.088Z,25.80
2018-06-21T15:10:01.272Z,25.10
2018-06-21T15:12:30.549Z,23.60
2018-06-21T15:15:05.906Z,24.40
2018-06-21T15:17:35.134Z,24.50
2018-06-21T15:20:04.295Z,23.80
2018-06-21T15:23:02.229Z,24.00
2018-06-21T15:28:31.704Z,23.80
2018-06-21T15:31:00.890Z,23.60
2018-06-21T15:33:30.032Z,24.00
2018-06-21T15:35:59.213Z,24.00
2018-06-21T15:38:28.398Z,23.60
2018-06-21T15:40:57.554Z,23.60
2018-06-21T15:45:03.374Z,23.30
2018-06-21T15:47:32.678Z,23.60
2018-06-21T15:50:02.165Z,24.00
2018-06-21T15:52:31.336Z,24.00
2018-06-21T15:55:00.505Z,24.00
2018-06-21T15:57:29.796Z,23.60
2018-06-21T16:00:05.700Z,23.00
2018-06-21T16:02:34.873Z,22.80
2018-06-21T16:05:04.021Z,22.70
2018-06-21T16:07:33.237Z,22.50
2018-06-21T16:10:02.482Z,22.40
2018-06-21T16:12:31.655Z,22.60
2018-06-21T16:15:00.853Z,22.30
2018-06-21T16:17:30.050Z,22.00
2018-06-21T16:19:59.244Z,22.40
2018-06-21T16:25:28.702Z,22.20
2018-06-21T16:27:57.853Z,21.90
2018-06-21T16:30:27.069Z,21.80
2018-06-21T16:36:04.129Z,21.60
2018-06-21T16:38:33.283Z,21.90
2018-06-21T16:41:05.535Z,21.50
2018-06-21T16:43:34.703Z,21.20
2018-06-21T16:46:04.045Z,21.10
2018-06-21T16:48:33.233Z,20.90
2018-06-21T16:52:22.589Z,20.80
2018-06-21T16:54:51.796Z,20.80
2018-06-21T16:57:21.029Z,20.90
2018-06-21T16:59:50.448Z,20.60
2018-06-21T17:05:20.266Z,20.60
2018-06-21T17:08:02.664Z,20.30
2018-06-21T17:10:31.862Z,20.50
2018-06-21T17:13:01.053Z,20.20
2018-06-21T17:15:30.239Z,19.90
2018-06-21T17:17:59.786Z,19.90
2018-06-21T17:23:29.092Z,20.30
2018-06-21T17:25:58.300Z,19.80
2018-06-21T17:30:56.449Z,20.00
2018-06-21T17:33:25.605Z,19.90
2018-06-21T17:36:05.256Z,20.00
2018-06-21T17:38:34.792Z,19.40
2018-06-21T17:41:04.042Z,19.30
2018-06-21T17:43:33.249Z,19.10
2018-06-21T17:55:02.694Z,18.50
2018-06-21T17:57:31.867Z,18.80
2018-06-21T18:00:05.032Z,18.70
2018-06-21T18:08:04.251Z,19.10
2018-06-21T18:10:33.650Z,19.40
2018-06-21T18:13:02.846Z,19.20
2018-06-21T18:15:32.013Z,18.50
2018-06-21T18:21:08.641Z,18.60
2018-06-21T18:23:37.793Z,18.20
2018-06-21T18:26:07.424Z,18.20
2018-06-21T18:28:36.643Z,18.20
2018-06-21T18:31:05.828Z,18.20
2018-06-21T18:33:35.057Z,18.50
2018-06-21T18:36:04.274Z,17.60
2018-06-21T18:39:02.404Z,17.70
2018-06-21T18:41:31.572Z,18.00
2018-06-21T18:44:00.746Z,17.50
2018-06-21T18:46:29.974Z,18.10
2018-06-21T18:48:59.164Z,17.50
2018-06-21T18:51:28.328Z,17.70
2018-06-21T18:53:57.512Z,17.40
2018-06-21T18:56:26.714Z,17.60
2018-06-21T18:58:55.950Z,17.40
2018-06-21T19:25:02.637Z,16.80
2018-06-21T23:57:30.200Z,14.90
